sensor_id;sensor_type;location;lat;lon;timestamp;pressure;altitude;pressure_sealevel;temperature
69420;BMP280;56612;52.030;113.524;2022-12-07T00:02:22;92951.44;;;-8.71
69420;BMP280;56612;52.030;113.524;2022-12-07T00:05:26;92954.72;;;-8.63
69420;BMP280;56612;52.030;113.524;2022-12-07T00:08:30;92959.91;;;-8.63
69420;BMP280;56612;52.030;113.524;2022-12-07T00:11:35;92963.03;;;-8.64
69420;BMP280;56612;52.030;113.524;2022-12-07T00:14:38;92962.66;;;-8.61
69420;BMP280;56612;52.030;113.524;2022-12-07T00:17:41;92966.78;;;-8.58
69420;BMP280;56612;52.030;113.524;2022-12-07T00:20:44;92975.81;;;-8.51
69420;BMP280;56612;52.030;113.524;2022-12-07T00:23:49;92983.56;;;-8.51
69420;BMP280;56612;52.030;113.524;2022-12-07T00:26:54;92977.50;;;-8.46
69420;BMP280;56612;52.030;113.524;2022-12-07T00:29:57;92979.09;;;-8.43
69420;BMP280;56612;52.030;113.524;2022-12-07T00:33:00;92987.56;;;-8.42
69420;BMP280;56612;52.030;113.524;2022-12-07T00:36:07;92983.41;;;-8.38
69420;BMP280;56612;52.030;113.524;2022-12-07T00:39:11;92983.25;;;-8.32
69420;BMP280;56612;52.030;113.524;2022-12-07T00:42:14;92984.47;;;-8.10
69420;BMP280;56612;52.030;113.524;2022-12-07T00:45:18;92989.31;;;-8.22
69420;BMP280;56612;52.030;113.524;2022-12-07T00:48:23;92986.34;;;-8.18
69420;BMP280;56612;52.030;113.524;2022-12-07T00:51:26;92993.44;;;-8.27
69420;BMP280;56612;52.030;113.524;2022-12-07T00:54:30;92995.50;;;-8.25
69420;BMP280;56612;52.030;113.524;2022-12-07T00:57:33;92989.28;;;-8.14
69420;BMP280;56612;52.030;113.524;2022-12-07T01:00:38;92998.47;;;-8.13
69420;BMP280;56612;52.030;113.524;2022-12-07T01:03:41;93007.97;;;-8.01
69420;BMP280;56612;52.030;113.524;2022-12-07T01:06:45;93012.81;;;-7.89
69420;BMP280;56612;52.030;113.524;2022-12-07T01:09:49;93010.19;;;-7.74
69420;BMP280;56612;52.030;113.524;2022-12-07T01:12:53;93025.72;;;-7.59
69420;BMP280;56612;52.030;113.524;2022-12-07T01:15:59;93028.66;;;-7.39
69420;BMP280;56612;52.030;113.524;2022-12-07T01:19:02;93036.91;;;-7.26
69420;BMP280;56612;52.030;113.524;2022-12-07T01:22:08;93025.91;;;-6.93
69420;BMP280;56612;52.030;113.524;2022-12-07T01:25:11;93027.28;;;-6.92
69420;BMP280;56612;52.030;113.524;2022-12-07T01:28:16;93031.34;;;-6.74
69420;BMP280;56612;52.030;113.524;2022-12-07T01:31:21;93039.00;;;-6.44
69420;BMP280;56612;52.030;113.524;2022-12-07T01:34:25;93043.91;;;-5.38
69420;BMP280;56612;52.030;113.524;2022-12-07T01:37:34;93049.94;;;-4.57
69420;BMP280;56612;52.030;113.524;2022-12-07T01:40:37;93047.84;;;-3.85
69420;BMP280;56612;52.030;113.524;2022-12-07T01:47:09;93054.94;;;-3.20
69420;BMP280;56612;52.030;113.524;2022-12-07T01:50:13;93050.78;;;-3.13
69420;BMP280;56612;52.030;113.524;2022-12-07T01:53:17;93057.69;;;-2.48
69420;BMP280;56612;52.030;113.524;2022-12-07T01:56:24;93056.03;;;-3.32
69420;BMP280;56612;52.030;113.524;2022-12-07T01:59:29;93052.69;;;-3.04
69420;BMP280;56612;52.030;113.524;2022-12-07T02:02:53;93052.97;;;-2.90
69420;BMP280;56612;52.030;113.524;2022-12-07T02:05:59;93045.81;;;-2.80
69420;BMP280;56612;52.030;113.524;2022-12-07T02:09:04;93041.94;;;-3.85
69420;BMP280;56612;52.030;113.524;2022-12-07T02:12:08;93040.84;;;-4.65
69420;BMP280;56612;52.030;113.524;2022-12-07T02:15:12;93055.94;;;-5.08
69420;BMP280;56612;52.030;113.524;2022-12-07T02:21:46;93053.69;;;-5.46
69420;BMP280;56612;52.030;113.524;2022-12-07T02:25:05;93053.63;;;-5.56
69420;BMP280;56612;52.030;113.524;2022-12-07T02:28:33;93041.69;;;-5.59
69420;BMP280;56612;52.030;113.524;2022-12-07T02:31:43;93039.72;;;-5.76
69420;BMP280;56612;52.030;113.524;2022-12-07T02:34:56;93049.94;;;-5.70
69420;BMP280;56612;52.030;113.524;2022-12-07T02:38:19;93041.97;;;-5.72
69420;BMP280;56612;52.030;113.524;2022-12-07T02:41:38;93041.09;;;-5.92
69420;BMP280;56612;52.030;113.524;2022-12-07T02:44:43;93038.75;;;-5.63
69420;BMP280;56612;52.030;113.524;2022-12-07T02:47:51;93020.53;;;-5.63
69420;BMP280;56612;52.030;113.524;2022-12-07T02:50:55;93015.88;;;-5.82
69420;BMP280;56612;52.030;113.524;2022-12-07T02:54:00;93021.91;;;-5.79
69420;BMP280;56612;52.030;113.524;2022-12-07T02:57:32;93013.97;;;-5.47
69420;BMP280;56612;52.030;113.524;2022-12-07T03:00:54;93022.84;;;-5.50
69420;BMP280;56612;52.030;113.524;2022-12-07T03:04:30;93023.22;;;-5.36
69420;BMP280;56612;52.030;113.524;2022-12-07T03:07:39;93012.59;;;-5.48
69420;BMP280;56612;52.030;113.524;2022-12-07T03:11:03;93014.09;;;-5.45
69420;BMP280;56612;52.030;113.524;2022-12-07T03:15:10;93011.84;;;-5.58
69420;BMP280;56612;52.030;113.524;2022-12-07T03:17:42;93010.22;;;-5.71
69420;BMP280;56612;52.030;113.524;2022-12-07T03:20:53;93015.66;;;-5.42
69420;BMP280;56612;52.030;113.524;2022-12-07T03:24:00;93012.91;;;-5.44
69420;BMP280;56612;52.030;113.524;2022-12-07T03:27:11;92997.88;;;-5.18
69420;BMP280;56612;52.030;113.524;2022-12-07T03:30:20;92991.66;;;-5.23
69420;BMP280;56612;52.030;113.524;2022-12-07T03:33:47;92992.22;;;-5.24
69420;BMP280;56612;52.030;113.524;2022-12-07T03:36:57;92989.53;;;-5.34
69420;BMP280;56612;52.030;113.524;2022-12-07T03:43:12;92988.13;;;-5.18
69420;BMP280;56612;52.030;113.524;2022-12-07T03:49:46;92984.38;;;-5.07
69420;BMP280;56612;52.030;113.524;2022-12-07T03:53:05;92986.63;;;-4.67
69420;BMP280;56612;52.030;113.524;2022-12-07T03:56:09;92984.34;;;-4.90
69420;BMP280;56612;52.030;113.524;2022-12-07T03:59:15;92975.56;;;-4.58
69420;BMP280;56612;52.030;113.524;2022-12-07T04:02:20;92988.63;;;-4.48
69420;BMP280;56612;52.030;113.524;2022-12-07T04:05:24;92983.25;;;-4.50
69420;BMP280;56612;52.030;113.524;2022-12-07T04:08:27;92995.72;;;-4.58
69420;BMP280;56612;52.030;113.524;2022-12-07T04:11:31;92992.13;;;-4.36
69420;BMP280;56612;52.030;113.524;2022-12-07T04:14:35;92987.31;;;-4.30
69420;BMP280;56612;52.030;113.524;2022-12-07T04:17:39;92990.47;;;-4.31
69420;BMP280;56612;52.030;113.524;2022-12-07T04:20:43;93001.03;;;-4.29
69420;BMP280;56612;52.030;113.524;2022-12-07T04:23:46;93002.22;;;-4.40
69420;BMP280;56612;52.030;113.524;2022-12-07T04:26:49;93003.25;;;-4.62
69420;BMP280;56612;52.030;113.524;2022-12-07T04:29:52;92996.91;;;-4.32
69420;BMP280;56612;52.030;113.524;2022-12-07T04:32:56;93001.25;;;-3.98
69420;BMP280;56612;52.030;113.524;2022-12-07T04:35:59;93005.53;;;-3.93
69420;BMP280;56612;52.030;113.524;2022-12-07T04:39:03;92999.09;;;-3.92
69420;BMP280;56612;52.030;113.524;2022-12-07T04:42:07;92997.34;;;-4.36
69420;BMP280;56612;52.030;113.524;2022-12-07T04:45:10;92987.06;;;-4.24
69420;BMP280;56612;52.030;113.524;2022-12-07T04:48:15;92994.66;;;-3.99
69420;BMP280;56612;52.030;113.524;2022-12-07T04:51:20;92981.97;;;-4.22
69420;BMP280;56612;52.030;113.524;2022-12-07T04:54:25;92982.56;;;-4.14
69420;BMP280;56612;52.030;113.524;2022-12-07T04:57:29;92988.47;;;-4.04
69420;BMP280;56612;52.030;113.524;2022-12-07T05:00:33;93008.03;;;-3.56
69420;BMP280;56612;52.030;113.524;2022-12-07T05:03:37;93011.06;;;-3.70
69420;BMP280;56612;52.030;113.524;2022-12-07T05:06:41;93012.00;;;-3.55
69420;BMP280;56612;52.030;113.524;2022-12-07T05:09:44;93020.66;;;-3.82
69420;BMP280;56612;52.030;113.524;2022-12-07T05:12:50;93030.50;;;-4.00
69420;BMP280;56612;52.030;113.524;2022-12-07T05:15:54;93017.75;;;-3.86
69420;BMP280;56612;52.030;113.524;2022-12-07T05:18:58;93009.06;;;-3.98
69420;BMP280;56612;52.030;113.524;2022-12-07T05:22:01;93008.88;;;-3.63
69420;BMP280;56612;52.030;113.524;2022-12-07T05:25:06;93008.16;;;-3.93
69420;BMP280;56612;52.030;113.524;2022-12-07T05:28:10;93004.38;;;-4.09
69420;BMP280;56612;52.030;113.524;2022-12-07T05:31:13;92995.88;;;-4.10
69420;BMP280;56612;52.030;113.524;2022-12-07T05:34:16;93010.22;;;-3.91
69420;BMP280;56612;52.030;113.524;2022-12-07T05:37:20;93007.72;;;-3.89
69420;BMP280;56612;52.030;113.524;2022-12-07T05:40:23;93013.75;;;-4.06
69420;BMP280;56612;52.030;113.524;2022-12-07T05:43:27;93014.78;;;-4.19
69420;BMP280;56612;52.030;113.524;2022-12-07T05:46:30;93002.88;;;-4.12
69420;BMP280;56612;52.030;113.524;2022-12-07T05:49:35;93012.81;;;-3.82
69420;BMP280;56612;52.030;113.524;2022-12-07T05:52:39;93014.28;;;-4.08
69420;BMP280;56612;52.030;113.524;2022-12-07T05:55:43;93004.00;;;-4.15
69420;BMP280;56612;52.030;113.524;2022-12-07T05:58:46;92997.41;;;-4.16
69420;BMP280;56612;52.030;113.524;2022-12-07T06:02:10;93015.38;;;-4.11
69420;BMP280;56612;52.030;113.524;2022-12-07T06:05:14;93016.38;;;-3.87
69420;BMP280;56612;52.030;113.524;2022-12-07T06:08:19;93018.22;;;-3.70
69420;BMP280;56612;52.030;113.524;2022-12-07T06:11:23;93016.16;;;-3.43
69420;BMP280;56612;52.030;113.524;2022-12-07T06:14:45;93014.78;;;-3.53
69420;BMP280;56612;52.030;113.524;2022-12-07T06:17:48;93016.56;;;-3.36
69420;BMP280;56612;52.030;113.524;2022-12-07T06:20:52;93021.53;;;-3.41
69420;BMP280;56612;52.030;113.524;2022-12-07T06:23:56;93023.66;;;-3.76
69420;BMP280;56612;52.030;113.524;2022-12-07T06:26:59;93027.63;;;-4.04
69420;BMP280;56612;52.030;113.524;2022-12-07T06:30:04;93034.22;;;-4.03
69420;BMP280;56612;52.030;113.524;2022-12-07T06:33:09;93033.72;;;-4.28
69420;BMP280;56612;52.030;113.524;2022-12-07T06:36:13;93032.22;;;-4.21
69420;BMP280;56612;52.030;113.524;2022-12-07T06:39:16;93029.75;;;-4.19
69420;BMP280;56612;52.030;113.524;2022-12-07T06:42:20;93039.91;;;-4.24
69420;BMP280;56612;52.030;113.524;2022-12-07T06:45:24;93029.72;;;-4.29
69420;BMP280;56612;52.030;113.524;2022-12-07T06:48:27;93031.78;;;-4.37
69420;BMP280;56612;52.030;113.524;2022-12-07T06:51:31;93047.78;;;-4.41
69420;BMP280;56612;52.030;113.524;2022-12-07T06:54:35;93045.03;;;-4.43
69420;BMP280;56612;52.030;113.524;2022-12-07T06:57:39;93051.41;;;-4.36
69420;BMP280;56612;52.030;113.524;2022-12-07T07:00:43;93053.19;;;-4.29
69420;BMP280;56612;52.030;113.524;2022-12-07T07:03:47;93060.00;;;-4.43
69420;BMP280;56612;52.030;113.524;2022-12-07T07:06:51;93068.50;;;-4.43
69420;BMP280;56612;52.030;113.524;2022-12-07T07:10:01;93056.72;;;-4.44
69420;BMP280;56612;52.030;113.524;2022-12-07T07:13:05;93067.78;;;-4.53
69420;BMP280;56612;52.030;113.524;2022-12-07T07:16:09;93077.53;;;-4.54
69420;BMP280;56612;52.030;113.524;2022-12-07T07:19:13;93079.31;;;-4.56
69420;BMP280;56612;52.030;113.524;2022-12-07T07:22:17;93074.44;;;-4.60
69420;BMP280;56612;52.030;113.524;2022-12-07T07:25:21;93081.59;;;-4.60
69420;BMP280;56612;52.030;113.524;2022-12-07T07:28:25;93087.88;;;-4.63
69420;BMP280;56612;52.030;113.524;2022-12-07T07:31:29;93084.56;;;-4.73
69420;BMP280;56612;52.030;113.524;2022-12-07T07:34:34;93079.88;;;-4.75
69420;BMP280;56612;52.030;113.524;2022-12-07T07:37:38;93085.47;;;-4.79
69420;BMP280;56612;52.030;113.524;2022-12-07T07:40:42;93090.69;;;-4.79
69420;BMP280;56612;52.030;113.524;2022-12-07T07:43:45;93092.38;;;-4.73
69420;BMP280;56612;52.030;113.524;2022-12-07T07:46:49;93105.56;;;-4.89
69420;BMP280;56612;52.030;113.524;2022-12-07T07:49:52;93102.72;;;-4.83
69420;BMP280;56612;52.030;113.524;2022-12-07T07:52:57;93105.47;;;-4.81
69420;BMP280;56612;52.030;113.524;2022-12-07T07:56:01;93104.22;;;-4.80
69420;BMP280;56612;52.030;113.524;2022-12-07T07:59:05;93104.94;;;-4.80
69420;BMP280;56612;52.030;113.524;2022-12-07T08:02:14;93108.47;;;-4.85
69420;BMP280;56612;52.030;113.524;2022-12-07T08:05:18;93110.53;;;-4.83
69420;BMP280;56612;52.030;113.524;2022-12-07T08:08:22;93108.94;;;-4.96
69420;BMP280;56612;52.030;113.524;2022-12-07T08:11:25;93114.50;;;-4.82
69420;BMP280;56612;52.030;113.524;2022-12-07T08:14:28;93118.44;;;-4.73
69420;BMP280;56612;52.030;113.524;2022-12-07T08:17:32;93123.66;;;-4.91
69420;BMP280;56612;52.030;113.524;2022-12-07T08:20:38;93117.53;;;-4.86
69420;BMP280;56612;52.030;113.524;2022-12-07T08:23:42;93117.56;;;-4.76
69420;BMP280;56612;52.030;113.524;2022-12-07T08:26:46;93123.66;;;-4.91
69420;BMP280;56612;52.030;113.524;2022-12-07T08:29:50;93122.72;;;-4.86
69420;BMP280;56612;52.030;113.524;2022-12-07T08:32:54;93124.09;;;-4.85
69420;BMP280;56612;52.030;113.524;2022-12-07T08:36:06;93125.78;;;-4.97
69420;BMP280;56612;52.030;113.524;2022-12-07T08:39:10;93129.84;;;-5.03
69420;BMP280;56612;52.030;113.524;2022-12-07T08:42:33;93126.25;;;-4.91
69420;BMP280;56612;52.030;113.524;2022-12-07T08:45:43;93131.69;;;-4.96
69420;BMP280;56612;52.030;113.524;2022-12-07T08:48:53;93125.94;;;-4.95
69420;BMP280;56612;52.030;113.524;2022-12-07T08:51:58;93122.03;;;-5.03
69420;BMP280;56612;52.030;113.524;2022-12-07T08:55:03;93128.34;;;-5.07
69420;BMP280;56612;52.030;113.524;2022-12-07T08:58:07;93128.22;;;-5.34
69420;BMP280;56612;52.030;113.524;2022-12-07T09:01:11;93131.69;;;-5.31
69420;BMP280;56612;52.030;113.524;2022-12-07T09:04:15;93115.97;;;-5.41
69420;BMP280;56612;52.030;113.524;2022-12-07T09:07:19;93137.34;;;-5.67
69420;BMP280;56612;52.030;113.524;2022-12-07T09:10:23;93127.34;;;-5.53
69420;BMP280;56612;52.030;113.524;2022-12-07T09:13:27;93119.19;;;-5.75
69420;BMP280;56612;52.030;113.524;2022-12-07T09:16:31;93122.19;;;-5.86
69420;BMP280;56612;52.030;113.524;2022-12-07T09:19:36;93120.13;;;-5.88
69420;BMP280;56612;52.030;113.524;2022-12-07T09:22:39;93120.34;;;-5.93
69420;BMP280;56612;52.030;113.524;2022-12-07T09:25:43;93121.03;;;-5.93
69420;BMP280;56612;52.030;113.524;2022-12-07T09:28:47;93125.59;;;-5.76
69420;BMP280;56612;52.030;113.524;2022-12-07T09:31:53;93133.63;;;-5.81
69420;BMP280;56612;52.030;113.524;2022-12-07T09:34:57;93137.63;;;-5.63
69420;BMP280;56612;52.030;113.524;2022-12-07T09:37:59;93136.66;;;-5.68
69420;BMP280;56612;52.030;113.524;2022-12-07T09:41:06;93136.78;;;-5.91
69420;BMP280;56612;52.030;113.524;2022-12-07T09:44:13;93135.41;;;-5.92
69420;BMP280;56612;52.030;113.524;2022-12-07T09:47:17;93135.91;;;-5.85
69420;BMP280;56612;52.030;113.524;2022-12-07T09:50:23;93146.41;;;-5.76
69420;BMP280;56612;52.030;113.524;2022-12-07T09:53:34;93137.91;;;-5.76
69420;BMP280;56612;52.030;113.524;2022-12-07T09:56:40;93142.66;;;-5.82
69420;BMP280;56612;52.030;113.524;2022-12-07T09:59:43;93148.75;;;-5.88
69420;BMP280;56612;52.030;113.524;2022-12-07T10:02:57;93143.41;;;-5.90
69420;BMP280;56612;52.030;113.524;2022-12-07T10:06:02;93158.78;;;-5.84
69420;BMP280;56612;52.030;113.524;2022-12-07T10:09:16;93144.94;;;-5.87
69420;BMP280;56612;52.030;113.524;2022-12-07T10:12:19;93154.72;;;-5.70
69420;BMP280;56612;52.030;113.524;2022-12-07T10:15:23;93162.41;;;-5.79
69420;BMP280;56612;52.030;113.524;2022-12-07T10:18:30;93168.97;;;-5.78
69420;BMP280;56612;52.030;113.524;2022-12-07T10:21:35;93179.22;;;-5.80
69420;BMP280;56612;52.030;113.524;2022-12-07T10:24:40;93185.31;;;-5.85
69420;BMP280;56612;52.030;113.524;2022-12-07T10:27:58;93190.88;;;-5.81
69420;BMP280;56612;52.030;113.524;2022-12-07T10:31:15;93185.78;;;-5.72
69420;BMP280;56612;52.030;113.524;2022-12-07T10:34:35;93191.22;;;-5.85
69420;BMP280;56612;52.030;113.524;2022-12-07T10:37:45;93193.66;;;-5.87
69420;BMP280;56612;52.030;113.524;2022-12-07T10:41:05;93190.91;;;-5.89
69420;BMP280;56612;52.030;113.524;2022-12-07T10:44:21;93198.03;;;-5.90
69420;BMP280;56612;52.030;113.524;2022-12-07T10:47:35;93210.91;;;-6.07
69420;BMP280;56612;52.030;113.524;2022-12-07T10:51:07;93205.94;;;-6.12
69420;BMP280;56612;52.030;113.524;2022-12-07T11:14:40;93223.38;;;-6.46
69420;BMP280;56612;52.030;113.524;2022-12-07T11:18:14;93231.19;;;-6.46
69420;BMP280;56612;52.030;113.524;2022-12-07T11:21:45;93229.78;;;-6.47
69420;BMP280;56612;52.030;113.524;2022-12-07T11:35:34;93219.41;;;-6.54
69420;BMP280;56612;52.030;113.524;2022-12-07T11:38:55;93227.91;;;-6.54
69420;BMP280;56612;52.030;113.524;2022-12-07T11:42:14;93228.28;;;-6.65
69420;BMP280;56612;52.030;113.524;2022-12-07T11:45:28;93223.06;;;-6.65
69420;BMP280;56612;52.030;113.524;2022-12-07T11:48:37;93232.78;;;-6.65
69420;BMP280;56612;52.030;113.524;2022-12-07T11:51:43;93238.66;;;-6.80
69420;BMP280;56612;52.030;113.524;2022-12-07T11:54:50;93232.06;;;-6.74
69420;BMP280;56612;52.030;113.524;2022-12-07T11:58:55;93235.56;;;-6.71
69420;BMP280;56612;52.030;113.524;2022-12-07T12:01:35;93243.84;;;-6.65
69420;BMP280;56612;52.030;113.524;2022-12-07T12:04:53;93253.34;;;-6.60
69420;BMP280;56612;52.030;113.524;2022-12-07T12:18:58;93261.53;;;-6.71
69420;BMP280;56612;52.030;113.524;2022-12-07T12:22:15;93253.25;;;-6.85
69420;BMP280;56612;52.030;113.524;2022-12-07T12:28:49;93247.16;;;-6.87
69420;BMP280;56612;52.030;113.524;2022-12-07T12:35:31;93249.06;;;-6.88
69420;BMP280;56612;52.030;113.524;2022-12-07T12:42:20;93241.78;;;-7.20
69420;BMP280;56612;52.030;113.524;2022-12-07T12:45:25;93250.81;;;-7.29
69420;BMP280;56612;52.030;113.524;2022-12-07T12:48:35;93247.84;;;-7.25
69420;BMP280;56612;52.030;113.524;2022-12-07T12:51:42;93261.19;;;-7.21
69420;BMP280;56612;52.030;113.524;2022-12-07T12:55:11;93261.00;;;-7.23
69420;BMP280;56612;52.030;113.524;2022-12-07T12:58:36;93262.91;;;-7.24
69420;BMP280;56612;52.030;113.524;2022-12-07T13:01:42;93272.09;;;-7.23
69420;BMP280;56612;52.030;113.524;2022-12-07T13:11:20;93280.00;;;-7.36
69420;BMP280;56612;52.030;113.524;2022-12-07T13:20:52;93286.25;;;-7.46
69420;BMP280;56612;52.030;113.524;2022-12-07T13:23:58;93296.78;;;-7.44
69420;BMP280;56612;52.030;113.524;2022-12-07T13:27:03;93301.81;;;-7.46
69420;BMP280;56612;52.030;113.524;2022-12-07T13:30:14;93297.84;;;-7.40
69420;BMP280;56612;52.030;113.524;2022-12-07T13:33:18;93306.13;;;-7.41
69420;BMP280;56612;52.030;113.524;2022-12-07T13:36:27;93309.81;;;-7.29
69420;BMP280;56612;52.030;113.524;2022-12-07T13:39:35;93316.03;;;-7.32
69420;BMP280;56612;52.030;113.524;2022-12-07T13:42:46;93315.81;;;-7.42
69420;BMP280;56612;52.030;113.524;2022-12-07T13:45:56;93323.28;;;-7.31
69420;BMP280;56612;52.030;113.524;2022-12-07T13:49:00;93316.19;;;-7.30
69420;BMP280;56612;52.030;113.524;2022-12-07T13:55:26;93324.13;;;-7.36
69420;BMP280;56612;52.030;113.524;2022-12-07T13:58:31;93327.41;;;-7.35
69420;BMP280;56612;52.030;113.524;2022-12-07T14:01:36;93328.47;;;-7.31
69420;BMP280;56612;52.030;113.524;2022-12-07T14:04:39;93326.94;;;-7.26
69420;BMP280;56612;52.030;113.524;2022-12-07T14:07:54;93327.50;;;-7.05
69420;BMP280;56612;52.030;113.524;2022-12-07T14:10:59;93322.47;;;-7.10
69420;BMP280;56612;52.030;113.524;2022-12-07T14:14:04;93333.50;;;-7.25
69420;BMP280;56612;52.030;113.524;2022-12-07T14:17:18;93335.56;;;-7.31
69420;BMP280;56612;52.030;113.524;2022-12-07T14:23:38;93348.38;;;-7.33
69420;BMP280;56612;52.030;113.524;2022-12-07T14:26:41;93354.59;;;-7.36
69420;BMP280;56612;52.030;113.524;2022-12-07T14:29:46;93345.47;;;-7.30
69420;BMP280;56612;52.030;113.524;2022-12-07T14:32:57;93354.03;;;-7.42
69420;BMP280;56612;52.030;113.524;2022-12-07T14:36:02;93358.91;;;-7.39
69420;BMP280;56612;52.030;113.524;2022-12-07T14:39:05;93351.66;;;-7.40
69420;BMP280;56612;52.030;113.524;2022-12-07T14:42:14;93358.22;;;-7.39
69420;BMP280;56612;52.030;113.524;2022-12-07T14:45:21;93349.56;;;-7.42
69420;BMP280;56612;52.030;113.524;2022-12-07T14:48:25;93360.84;;;-7.24
69420;BMP280;56612;52.030;113.524;2022-12-07T14:51:49;93363.31;;;-7.11
69420;BMP280;56612;52.030;113.524;2022-12-07T14:55:16;93356.41;;;-7.08
69420;BMP280;56612;52.030;113.524;2022-12-07T14:58:23;93358.00;;;-6.98
69420;BMP280;56612;52.030;113.524;2022-12-07T15:01:26;93350.88;;;-7.05
69420;BMP280;56612;52.030;113.524;2022-12-07T15:04:29;93353.81;;;-7.08
69420;BMP280;56612;52.030;113.524;2022-12-07T15:07:32;93368.72;;;-7.09
69420;BMP280;56612;52.030;113.524;2022-12-07T15:10:35;93358.31;;;-7.09
69420;BMP280;56612;52.030;113.524;2022-12-07T15:13:41;93355.91;;;-6.84
69420;BMP280;56612;52.030;113.524;2022-12-07T15:17:03;93359.75;;;-6.85
69420;BMP280;56612;52.030;113.524;2022-12-07T15:20:17;93342.94;;;-6.84
69420;BMP280;56612;52.030;113.524;2022-12-07T15:23:21;93363.16;;;-6.90
69420;BMP280;56612;52.030;113.524;2022-12-07T15:26:24;93351.59;;;-6.97
69420;BMP280;56612;52.030;113.524;2022-12-07T15:29:27;93339.44;;;-7.09
69420;BMP280;56612;52.030;113.524;2022-12-07T15:32:31;93354.66;;;-7.13
69420;BMP280;56612;52.030;113.524;2022-12-07T15:35:44;93354.81;;;-7.11
69420;BMP280;56612;52.030;113.524;2022-12-07T15:38:48;93351.56;;;-7.04
69420;BMP280;56612;52.030;113.524;2022-12-07T15:42:12;93356.22;;;-7.03
69420;BMP280;56612;52.030;113.524;2022-12-07T15:45:15;93352.81;;;-6.98
69420;BMP280;56612;52.030;113.524;2022-12-07T15:48:21;93362.13;;;-7.02
69420;BMP280;56612;52.030;113.524;2022-12-07T15:51:30;93347.38;;;-7.00
69420;BMP280;56612;52.030;113.524;2022-12-07T15:54:35;93370.09;;;-6.92
69420;BMP280;56612;52.030;113.524;2022-12-07T15:57:40;93355.22;;;-6.92
69420;BMP280;56612;52.030;113.524;2022-12-07T16:00:43;93352.59;;;-6.92
69420;BMP280;56612;52.030;113.524;2022-12-07T16:03:47;93341.38;;;-6.87
69420;BMP280;56612;52.030;113.524;2022-12-07T16:06:51;93355.22;;;-6.92
69420;BMP280;56612;52.030;113.524;2022-12-07T16:09:55;93342.38;;;-6.90
69420;BMP280;56612;52.030;113.524;2022-12-07T16:12:59;93340.66;;;-6.95
69420;BMP280;56612;52.030;113.524;2022-12-07T16:16:12;93344.47;;;-6.88
69420;BMP280;56612;52.030;113.524;2022-12-07T16:19:16;93342.94;;;-6.76
69420;BMP280;56612;52.030;113.524;2022-12-07T16:22:19;93330.44;;;-6.93
69420;BMP280;56612;52.030;113.524;2022-12-07T16:25:25;93340.50;;;-6.97
69420;BMP280;56612;52.030;113.524;2022-12-07T16:28:30;93333.41;;;-6.81
69420;BMP280;56612;52.030;113.524;2022-12-07T16:31:33;93338.28;;;-6.85
69420;BMP280;56612;52.030;113.524;2022-12-07T16:34:39;93333.56;;;-6.95
69420;BMP280;56612;52.030;113.524;2022-12-07T16:37:42;93338.38;;;-7.14
69420;BMP280;56612;52.030;113.524;2022-12-07T16:40:47;93322.66;;;-7.08
69420;BMP280;56612;52.030;113.524;2022-12-07T16:43:50;93329.03;;;-7.02
69420;BMP280;56612;52.030;113.524;2022-12-07T16:46:55;93327.31;;;-7.07
69420;BMP280;56612;52.030;113.524;2022-12-07T16:49:58;93323.53;;;-6.98
69420;BMP280;56612;52.030;113.524;2022-12-07T16:53:03;93325.94;;;-7.08
69420;BMP280;56612;52.030;113.524;2022-12-07T16:56:13;93331.31;;;-7.06
69420;BMP280;56612;52.030;113.524;2022-12-07T16:59:21;93327.81;;;-7.16
69420;BMP280;56612;52.030;113.524;2022-12-07T17:02:24;93322.47;;;-7.03
69420;BMP280;56612;52.030;113.524;2022-12-07T17:05:29;93309.69;;;-7.08
69420;BMP280;56612;52.030;113.524;2022-12-07T17:08:32;93311.91;;;-7.05
69420;BMP280;56612;52.030;113.524;2022-12-07T17:11:36;93308.06;;;-7.11
69420;BMP280;56612;52.030;113.524;2022-12-07T17:14:40;93308.91;;;-7.32
69420;BMP280;56612;52.030;113.524;2022-12-07T17:18:06;93320.53;;;-7.25
69420;BMP280;56612;52.030;113.524;2022-12-07T17:21:09;93317.06;;;-7.28
69420;BMP280;56612;52.030;113.524;2022-12-07T17:24:15;93310.44;;;-7.44
69420;BMP280;56612;52.030;113.524;2022-12-07T17:27:19;93309.91;;;-7.50
69420;BMP280;56612;52.030;113.524;2022-12-07T17:30:23;93307.47;;;-7.56
69420;BMP280;56612;52.030;113.524;2022-12-07T17:33:27;93305.91;;;-7.59
69420;BMP280;56612;52.030;113.524;2022-12-07T17:36:35;93293.66;;;-7.43
69420;BMP280;56612;52.030;113.524;2022-12-07T17:39:42;93288.09;;;-7.55
69420;BMP280;56612;52.030;113.524;2022-12-07T17:42:45;93280.09;;;-7.80
69420;BMP280;56612;52.030;113.524;2022-12-07T17:45:52;93286.28;;;-7.83
69420;BMP280;56612;52.030;113.524;2022-12-07T17:48:57;93271.69;;;-7.93
69420;BMP280;56612;52.030;113.524;2022-12-07T17:52:03;93271.72;;;-8.01
69420;BMP280;56612;52.030;113.524;2022-12-07T17:55:25;93277.19;;;-8.05
69420;BMP280;56612;52.030;113.524;2022-12-07T17:58:28;93268.69;;;-8.20
69420;BMP280;56612;52.030;113.524;2022-12-07T18:01:32;93277.66;;;-8.21
69420;BMP280;56612;52.030;113.524;2022-12-07T18:04:36;93266.19;;;-8.26
69420;BMP280;56612;52.030;113.524;2022-12-07T18:07:39;93274.66;;;-8.33
69420;BMP280;56612;52.030;113.524;2022-12-07T18:10:42;93274.25;;;-8.37
69420;BMP280;56612;52.030;113.524;2022-12-07T18:13:46;93274.44;;;-8.35
69420;BMP280;56612;52.030;113.524;2022-12-07T18:16:49;93270.88;;;-8.32
69420;BMP280;56612;52.030;113.524;2022-12-07T18:19:54;93275.16;;;-8.35
69420;BMP280;56612;52.030;113.524;2022-12-07T18:22:57;93282.44;;;-8.33
69420;BMP280;56612;52.030;113.524;2022-12-07T18:26:01;93281.06;;;-8.34
69420;BMP280;56612;52.030;113.524;2022-12-07T18:29:06;93285.56;;;-8.27
69420;BMP280;56612;52.030;113.524;2022-12-07T18:32:10;93289.53;;;-8.26
69420;BMP280;56612;52.030;113.524;2022-12-07T18:35:13;93294.59;;;-8.20
69420;BMP280;56612;52.030;113.524;2022-12-07T18:38:17;93296.53;;;-8.06
69420;BMP280;56612;52.030;113.524;2022-12-07T18:41:21;93305.00;;;-8.05
69420;BMP280;56612;52.030;113.524;2022-12-07T18:44:25;93310.88;;;-8.05
69420;BMP280;56612;52.030;113.524;2022-12-07T18:47:29;93296.44;;;-7.92
69420;BMP280;56612;52.030;113.524;2022-12-07T18:50:32;93300.06;;;-7.95
69420;BMP280;56612;52.030;113.524;2022-12-07T18:53:36;93303.94;;;-7.81